createdAt,value
2023-02-11T00:00:58.751Z,7.8
2023-02-11T00:08:31.069Z,7.0
2023-02-11T00:16:03.824Z,5.7
2023-02-11T00:23:36.158Z,7.8
2023-02-11T00:31:08.607Z,6.2
2023-02-11T00:38:40.982Z,7.0
2023-02-11T00:46:13.386Z,7.3
2023-02-11T00:53:45.733Z,7.1
2023-02-11T01:01:18.081Z,7.2
2023-02-11T01:08:50.435Z,6.9
2023-02-11T01:16:22.814Z,7.0
2023-02-11T01:23:55.201Z,7.4
2023-02-11T01:31:27.631Z,6.0
2023-02-11T01:38:59.966Z,6.5
2023-02-11T01:46:32.345Z,5.8
2023-02-11T01:54:04.704Z,6.1
2023-02-11T02:01:37.096Z,5.6
2023-02-11T02:09:09.450Z,5.4
2023-02-11T02:16:41.824Z,5.8
2023-02-11T02:24:14.367Z,8.1
2023-02-11T02:31:46.719Z,6.2
2023-02-11T02:39:19.057Z,5.8
2023-02-11T02:46:51.407Z,6.0
2023-02-11T02:54:23.731Z,5.8
2023-02-11T03:01:56.046Z,6.2
2023-02-11T03:09:28.370Z,6.6
2023-02-11T03:17:00.704Z,7.8
2023-02-11T03:24:33.020Z,6.1
2023-02-11T03:32:05.446Z,6.2
2023-02-11T03:39:37.789Z,6.3
2023-02-11T03:47:10.116Z,7.7
2023-02-11T03:54:42.447Z,5.3
2023-02-11T04:02:14.800Z,5.7
2023-02-11T04:09:47.147Z,7.3
2023-02-11T04:17:19.444Z,5.5
2023-02-11T04:24:51.765Z,7.2
2023-02-11T04:32:24.069Z,6.6
2023-02-11T04:39:56.428Z,6.3
2023-02-11T04:47:28.745Z,6.9
2023-02-11T04:55:01.094Z,5.9
2023-02-11T05:02:33.438Z,6.1
2023-02-11T05:10:05.764Z,4.2
2023-02-11T05:17:38.111Z,5.2
2023-02-11T05:25:10.429Z,6.1
2023-02-11T05:32:42.740Z,6.6
2023-02-11T05:40:15.084Z,6.2
2023-02-11T05:47:47.417Z,4.6
2023-02-11T05:55:19.748Z,6.0
2023-02-11T06:02:52.129Z,10.6
2023-02-11T06:10:24.460Z,7.3
2023-02-11T06:17:24.090Z,7.7
2023-02-11T06:18:11.442Z,8.4
2023-02-11T06:18:58.740Z,12.9
2023-02-11T06:19:46.058Z,9.9
2023-02-11T06:20:33.373Z,9.3
2023-02-11T06:21:20.683Z,7.9
2023-02-11T06:22:08.006Z,8.5
2023-02-11T06:22:55.515Z,9.1
2023-02-11T06:23:42.818Z,11.9
2023-02-11T06:31:15.346Z,10.4
2023-02-11T06:38:57.884Z,11.0
2023-02-11T06:39:45.208Z,11.3
2023-02-11T06:40:32.532Z,18.7
2023-02-11T06:41:19.879Z,10.8
2023-02-11T06:42:08.048Z,11.3
2023-02-11T06:42:55.439Z,11.5
2023-02-11T06:50:27.741Z,12.8
2023-02-11T06:51:15.043Z,12.1
2023-02-11T06:52:02.382Z,12.2
2023-02-11T06:52:49.713Z,12.7
2023-02-11T06:53:37.049Z,13.3
2023-02-11T06:54:24.433Z,12.6
2023-02-11T06:55:11.922Z,12.0
2023-02-11T06:55:59.241Z,16.5
2023-02-11T06:56:46.548Z,13.7
2023-02-11T06:57:33.875Z,21.1
2023-02-11T06:58:21.230Z,13.3
2023-02-11T06:59:08.552Z,11.6
2023-02-11T06:59:56.118Z,13.5
2023-02-11T07:00:43.429Z,12.9
2023-02-11T07:01:30.755Z,12.3
2023-02-11T07:02:20.790Z,12.2
2023-02-11T07:03:08.952Z,19.1
2023-02-11T07:03:56.273Z,13.5
2023-02-11T07:04:43.798Z,12.8
2023-02-11T07:05:31.192Z,10.9
2023-02-11T07:06:18.492Z,11.0
2023-02-11T07:07:05.894Z,11.0
2023-02-11T07:07:53.241Z,10.6
2023-02-11T07:08:40.540Z,13.4
2023-02-11T07:09:27.970Z,11.6
2023-02-11T07:10:15.269Z,13.5
2023-02-11T07:11:02.587Z,12.3
2023-02-11T07:11:49.989Z,13.7
2023-02-11T07:12:37.335Z,11.7
2023-02-11T07:13:24.680Z,12.6
2023-02-11T07:14:12.240Z,12.4
2023-02-11T07:14:59.556Z,11.3
2023-02-11T07:15:46.882Z,12.4
2023-02-11T07:16:34.404Z,12.8
2023-02-11T07:17:21.742Z,13.9
2023-02-11T07:18:09.068Z,12.8
2023-02-11T07:18:56.472Z,12.7
2023-02-11T07:19:43.812Z,11.9
2023-02-11T07:20:31.131Z,13.9
2023-02-11T07:21:18.545Z,15.3
2023-02-11T07:22:05.865Z,12.6
2023-02-11T07:22:53.190Z,10.4
2023-02-11T07:23:40.589Z,12.6
2023-02-11T07:24:27.911Z,12.0
2023-02-11T07:25:15.510Z,11.3
2023-02-11T07:26:02.818Z,13.0
2023-02-11T07:26:50.123Z,12.1
2023-02-11T07:27:37.433Z,12.8
2023-02-11T07:28:24.944Z,12.5
2023-02-11T07:29:12.442Z,12.4
2023-02-11T07:29:59.748Z,14.3
2023-02-11T07:30:47.222Z,13.0
2023-02-11T07:31:34.583Z,12.6
2023-02-11T07:32:21.971Z,13.5
2023-02-11T07:33:09.385Z,13.0
2023-02-11T07:33:56.709Z,15.1
2023-02-11T07:34:44.095Z,15.6
2023-02-11T07:35:31.475Z,13.8
2023-02-11T07:36:18.783Z,11.3
2023-02-11T07:37:06.120Z,13.3
2023-02-11T07:37:53.511Z,12.7
2023-02-11T07:38:40.832Z,14.2
2023-02-11T07:39:28.164Z,12.6
2023-02-11T07:40:15.553Z,13.8
2023-02-11T07:41:02.878Z,12.4
2023-02-11T07:41:50.176Z,10.9
2023-02-11T07:42:37.607Z,11.1
2023-02-11T07:43:24.923Z,12.5
2023-02-11T07:44:12.225Z,13.5
2023-02-11T07:44:59.639Z,15.0
2023-02-11T07:45:46.951Z,12.1
2023-02-11T07:46:34.294Z,11.2
2023-02-11T07:47:21.669Z,14.4
2023-02-11T07:48:08.966Z,10.6
2023-02-11T07:48:56.289Z,11.5
2023-02-11T07:49:43.685Z,11.5
2023-02-11T07:50:31.011Z,12.2
2023-02-11T07:51:18.364Z,11.8
2023-02-11T07:52:05.735Z,10.5
2023-02-11T07:52:53.032Z,10.8
2023-02-11T07:53:40.392Z,13.9
2023-02-11T07:54:27.765Z,10.8
2023-02-11T07:55:15.093Z,9.9
2023-02-11T07:56:02.424Z,12.1
2023-02-11T07:56:49.825Z,10.1
2023-02-11T07:57:37.139Z,10.2
2023-02-11T07:58:24.458Z,13.9
2023-02-11T07:59:11.881Z,13.2
2023-02-11T07:59:59.186Z,10.1
2023-02-11T08:00:46.559Z,13.8
2023-02-11T08:01:33.940Z,11.0
2023-02-11T08:02:21.488Z,9.0
2023-02-11T08:03:08.861Z,11.6
2023-02-11T08:03:56.299Z,13.3
2023-02-11T08:04:43.608Z,10.0
2023-02-11T08:05:30.917Z,11.9
2023-02-11T08:06:18.364Z,11.2
2023-02-11T08:07:05.724Z,17.1
2023-02-11T08:07:53.025Z,13.1
2023-02-11T08:08:40.498Z,9.9
2023-02-11T08:09:27.817Z,10.0
2023-02-11T08:10:15.145Z,14.7
2023-02-11T08:11:02.549Z,11.6
2023-02-11T08:11:49.854Z,11.0
2023-02-11T08:12:37.177Z,16.7
2023-02-11T08:13:24.603Z,13.2
2023-02-11T08:14:11.935Z,16.3
2023-02-11T08:14:59.258Z,12.6
2023-02-11T08:15:46.672Z,16.9
2023-02-11T08:16:34.159Z,14.1
2023-02-11T08:17:21.499Z,10.8
2023-02-11T08:18:08.921Z,15.0
2023-02-11T08:18:56.244Z,13.7
2023-02-11T08:19:43.533Z,13.3
2023-02-11T08:20:30.987Z,14.0
2023-02-11T08:21:18.339Z,12.5
2023-02-11T08:22:05.642Z,14.6
2023-02-11T08:22:53.101Z,11.3
2023-02-11T08:23:40.428Z,18.4
2023-02-11T08:24:27.748Z,13.8
2023-02-11T08:25:15.183Z,12.5
2023-02-11T08:26:02.497Z,11.2
2023-02-11T08:26:49.815Z,12.3
2023-02-11T08:27:37.245Z,10.6
2023-02-11T08:28:24.674Z,14.7
2023-02-11T08:29:12.075Z,14.6
2023-02-11T08:29:59.445Z,10.0
2023-02-11T08:30:46.831Z,11.9
2023-02-11T08:31:34.291Z,11.7
2023-02-11T08:32:21.736Z,13.3
2023-02-11T08:33:09.046Z,12.9
2023-02-11T08:33:56.369Z,14.9
2023-02-11T08:34:43.775Z,12.6
2023-02-11T08:35:31.242Z,10.8
2023-02-11T08:36:18.565Z,19.7
2023-02-11T08:37:05.971Z,13.1
2023-02-11T08:37:53.294Z,11.2
2023-02-11T08:38:40.594Z,14.3
2023-02-11T08:39:28.083Z,13.1
2023-02-11T08:40:16.150Z,14.5
2023-02-11T08:41:03.487Z,17.0
2023-02-11T08:41:51.473Z,10.9
2023-02-11T08:42:38.916Z,12.3
2023-02-11T08:43:26.221Z,19.5
2023-02-11T08:44:13.528Z,11.4
2023-02-11T08:45:00.958Z,11.9
2023-02-11T08:45:48.416Z,13.1
2023-02-11T08:46:35.880Z,17.4
2023-02-11T08:47:23.332Z,15.3
2023-02-11T08:48:10.650Z,19.1
2023-02-11T08:48:57.949Z,20.7
2023-02-11T08:49:45.557Z,20.3
2023-02-11T08:50:32.905Z,21.3
2023-02-11T08:51:20.263Z,24.2
2023-02-11T08:52:07.665Z,18.2
2023-02-11T08:52:55.060Z,17.3
2023-02-11T08:53:42.381Z,14.7
2023-02-11T08:54:29.798Z,11.7
2023-02-11T08:55:17.613Z,15.0
2023-02-11T08:56:04.957Z,23.9
2023-02-11T08:56:52.428Z,13.7
2023-02-11T08:57:39.767Z,17.1
2023-02-11T08:58:27.083Z,15.7
2023-02-11T08:59:14.565Z,20.4
2023-02-11T09:00:01.868Z,12.4
2023-02-11T09:00:49.657Z,24.8
2023-02-11T09:01:37.419Z,18.2
2023-02-11T09:02:24.880Z,21.1
2023-02-11T09:03:12.193Z,28.4
2023-02-11T09:03:59.546Z,28.9
2023-02-11T09:04:46.912Z,30.7
2023-02-11T09:05:34.277Z,31.4
2023-02-11T09:06:21.580Z,27.2
2023-02-11T09:07:09.029Z,23.8
2023-02-11T09:07:56.364Z,23.7
2023-02-11T09:08:46.081Z,24.1
2023-02-11T09:09:33.711Z,21.6
2023-02-11T09:10:21.116Z,21.1
2023-02-11T09:11:08.432Z,15.3
2023-02-11T09:11:55.936Z,17.2
2023-02-11T09:12:43.295Z,23.2
2023-02-11T09:13:30.638Z,13.3
2023-02-11T09:14:17.953Z,19.9
2023-02-11T09:15:05.378Z,19.2
2023-02-11T09:15:52.709Z,14.1
2023-02-11T09:16:40.079Z,20.2
2023-02-11T09:17:27.484Z,22.7
2023-02-11T09:18:14.794Z,20.3
2023-02-11T09:19:02.126Z,18.0
2023-02-11T09:19:49.530Z,14.3
2023-02-11T09:20:36.891Z,21.7
2023-02-11T09:21:24.194Z,14.1
2023-02-11T09:22:11.670Z,21.5
2023-02-11T09:22:58.984Z,15.4
2023-02-11T09:23:46.307Z,16.2
2023-02-11T09:24:33.701Z,14.1
2023-02-11T09:25:21.030Z,17.5
2023-02-11T09:26:09.451Z,18.2
2023-02-11T09:26:56.922Z,17.6
2023-02-11T09:27:44.221Z,13.6
2023-02-11T09:28:31.654Z,25.1
2023-02-11T09:29:19.025Z,10.4
2023-02-11T09:30:06.402Z,19.1
2023-02-11T09:30:54.166Z,17.4
2023-02-11T09:31:41.845Z,11.4
2023-02-11T09:32:29.268Z,21.4
2023-02-11T09:33:16.587Z,16.6
2023-02-11T09:34:03.897Z,15.4
2023-02-11T09:34:51.317Z,13.3
2023-02-11T09:35:38.641Z,21.2
2023-02-11T09:36:25.938Z,12.1
2023-02-11T09:37:13.364Z,20.7
2023-02-11T09:38:00.682Z,32.7
2023-02-11T09:38:48.006Z,22.4
2023-02-11T09:39:35.405Z,16.4
2023-02-11T09:40:22.752Z,16.4
2023-02-11T09:41:10.094Z,17.3
2023-02-11T09:41:57.498Z,15.1
2023-02-11T09:42:44.814Z,14.7
2023-02-11T09:43:32.140Z,17.0
2023-02-11T09:44:19.563Z,22.9
2023-02-11T09:45:06.880Z,18.3
2023-02-11T09:45:54.291Z,15.6
2023-02-11T09:46:41.638Z,20.8
2023-02-11T09:47:28.943Z,20.9
2023-02-11T09:48:16.272Z,11.9
2023-02-11T09:49:03.675Z,16.3
2023-02-11T09:49:50.974Z,16.6
2023-02-11T09:50:38.306Z,19.3
2023-02-11T09:51:25.906Z,18.0
2023-02-11T09:52:13.207Z,14.1
2023-02-11T09:53:00.534Z,17.4
2023-02-11T09:53:47.958Z,14.9
2023-02-11T09:54:35.298Z,13.5
2023-02-11T09:55:22.606Z,9.5
2023-02-11T09:56:10.063Z,18.6
2023-02-11T09:56:57.545Z,28.9
2023-02-11T09:57:44.895Z,18.0
2023-02-11T09:58:32.275Z,12.5
2023-02-11T09:59:19.594Z,13.0
2023-02-11T10:00:06.915Z,17.2
2023-02-11T10:00:54.522Z,11.6
2023-02-11T10:01:41.902Z,16.9
2023-02-11T10:02:29.246Z,13.8
2023-02-11T10:03:16.676Z,14.2
2023-02-11T10:04:04.023Z,18.3
2023-02-11T10:04:51.388Z,20.0
2023-02-11T10:05:38.799Z,12.9
2023-02-11T10:06:26.146Z,17.6
2023-02-11T10:07:13.485Z,14.8
2023-02-11T10:08:00.899Z,21.6
2023-02-11T10:08:48.210Z,11.0
2023-02-11T10:09:35.551Z,19.0
2023-02-11T10:10:22.923Z,23.6
2023-02-11T10:11:17.582Z,15.5
2023-02-11T10:12:07.493Z,14.7
2023-02-11T10:12:55.006Z,15.2
2023-02-11T10:13:42.728Z,11.1
2023-02-11T10:14:30.175Z,13.8
2023-02-11T10:15:17.801Z,12.9
2023-02-11T10:16:05.358Z,15.9
2023-02-11T10:16:52.708Z,13.1
2023-02-11T10:17:40.027Z,25.4
2023-02-11T10:18:27.364Z,25.6
2023-02-11T10:19:14.713Z,20.3
2023-02-11T10:20:02.063Z,18.5
2023-02-11T10:20:49.845Z,20.0
2023-02-11T10:21:37.366Z,21.2
2023-02-11T10:22:24.727Z,25.9
2023-02-11T10:23:12.050Z,17.1
2023-02-11T10:23:59.414Z,20.8
2023-02-11T10:24:47.092Z,19.1
2023-02-11T10:25:34.734Z,21.4
2023-02-11T10:26:22.068Z,20.2
2023-02-11T10:27:09.420Z,19.3
2023-02-11T10:27:56.820Z,23.3
2023-02-11T10:28:44.449Z,20.8
2023-02-11T10:29:31.897Z,12.6
2023-02-11T10:30:19.268Z,23.6
2023-02-11T10:31:06.765Z,12.2
2023-02-11T10:31:56.595Z,14.5
2023-02-11T10:32:45.537Z,10.3
2023-02-11T10:33:32.857Z,13.1
2023-02-11T10:34:20.194Z,10.2
2023-02-11T10:35:07.585Z,10.2
2023-02-11T10:35:55.149Z,12.4
2023-02-11T10:36:42.675Z,14.4
2023-02-11T10:37:29.990Z,13.7
2023-02-11T10:38:17.332Z,10.4
2023-02-11T10:39:04.656Z,14.7
2023-02-11T10:39:51.983Z,17.6
2023-02-11T10:40:39.369Z,11.3
2023-02-11T10:41:26.706Z,13.1
2023-02-11T10:42:14.272Z,15.2
2023-02-11T10:43:01.598Z,8.6
2023-02-11T10:43:49.376Z,11.6
2023-02-11T10:44:36.719Z,14.3
2023-02-11T10:45:24.021Z,11.2
2023-02-11T10:46:11.427Z,11.3
2023-02-11T10:46:58.749Z,9.4
2023-02-11T10:47:46.086Z,9.1
2023-02-11T10:48:33.859Z,9.8
2023-02-11T10:49:21.205Z,12.2
2023-02-11T10:50:08.569Z,9.3
2023-02-11T10:50:55.878Z,9.9
2023-02-11T10:51:43.270Z,10.3
2023-02-11T10:52:32.091Z,13.2
2023-02-11T10:54:07.186Z,20.8
2023-02-11T10:54:54.687Z,14.3
2023-02-11T10:55:42.072Z,13.3
2023-02-11T10:56:29.398Z,21.2
2023-02-11T10:57:16.727Z,13.0
2023-02-11T10:58:04.047Z,11.7
2023-02-11T10:58:51.366Z,15.1
2023-02-11T10:59:38.675Z,12.5
2023-02-11T11:00:26.007Z,14.7
2023-02-11T11:01:23.757Z,10.6
2023-02-11T11:02:10.627Z,10.4
2023-02-11T11:02:58.052Z,10.8
2023-02-11T11:03:45.421Z,16.4
2023-02-11T11:04:32.806Z,11.6
2023-02-11T11:05:20.184Z,11.7
2023-02-11T11:06:07.487Z,11.1
2023-02-11T11:06:54.808Z,13.0
2023-02-11T11:07:42.405Z,9.3
2023-02-11T11:08:29.736Z,14.8
2023-02-11T11:09:17.074Z,11.0
2023-02-11T11:10:04.547Z,13.8
2023-02-11T11:10:52.161Z,13.3
2023-02-11T11:11:39.641Z,10.1
2023-02-11T11:12:29.572Z,12.0
2023-02-11T11:13:16.909Z,10.1
2023-02-11T11:14:04.230Z,10.6
2023-02-11T11:14:51.547Z,27.5
2023-02-11T11:15:39.331Z,18.0
2023-02-11T11:16:26.768Z,10.7
2023-02-11T11:17:14.309Z,19.4
2023-02-11T11:18:19.192Z,14.8
2023-02-11T11:18:58.940Z,19.5
2023-02-11T11:19:46.419Z,23.0
2023-02-11T11:20:33.741Z,22.7
2023-02-11T11:21:21.070Z,17.1
2023-02-11T11:22:08.501Z,15.6
2023-02-11T11:22:55.828Z,30.7
2023-02-11T11:23:43.200Z,26.7
2023-02-11T11:24:30.599Z,11.5
2023-02-11T11:25:17.957Z,16.0
2023-02-11T11:26:05.273Z,8.3
2023-02-11T11:26:52.803Z,19.3
2023-02-11T11:27:40.137Z,10.6
2023-02-11T11:28:27.581Z,33.4
2023-02-11T11:29:14.919Z,12.3
2023-02-11T11:30:02.252Z,12.8
2023-02-11T11:30:49.978Z,11.6
2023-02-11T11:31:37.632Z,10.2
2023-02-11T11:39:10.046Z,11.5
2023-02-11T11:46:42.382Z,9.7
2023-02-11T11:54:14.738Z,17.3
2023-02-11T12:01:47.150Z,7.5
2023-02-11T12:09:19.467Z,11.5
2023-02-11T12:16:51.818Z,9.9
2023-02-11T12:24:24.198Z,9.9
2023-02-11T12:31:56.748Z,8.6
2023-02-11T12:39:29.109Z,5.8
2023-02-11T12:47:01.525Z,9.1
2023-02-11T12:54:33.866Z,6.5
2023-02-11T13:02:06.237Z,5.8
2023-02-11T13:09:38.576Z,6.8
2023-02-11T13:17:10.895Z,4.9
2023-02-11T13:24:43.221Z,5.8
2023-02-11T13:32:15.540Z,7.1
2023-02-11T13:39:47.871Z,5.5
2023-02-11T13:47:20.271Z,5.6
2023-02-11T13:54:52.569Z,4.4
2023-02-11T14:02:25.033Z,5.0
2023-02-11T14:09:57.399Z,5.1
2023-02-11T14:17:29.742Z,4.8
2023-02-11T14:25:02.133Z,5.6
2023-02-11T14:32:34.442Z,4.4
2023-02-11T14:40:06.770Z,3.9
2023-02-11T14:47:39.114Z,3.8
2023-02-11T14:55:11.436Z,4.8
2023-02-11T15:02:43.858Z,4.2
2023-02-11T15:10:16.232Z,4.6
2023-02-11T15:17:48.557Z,4.1
2023-02-11T15:25:20.883Z,4.5
2023-02-11T15:32:53.201Z,3.9
2023-02-11T15:40:25.511Z,3.8
2023-02-11T15:47:57.828Z,3.9
2023-02-11T15:55:30.149Z,4.3
2023-02-11T16:03:02.466Z,5.6
2023-02-11T16:10:34.776Z,5.6
2023-02-11T16:18:07.092Z,5.6
2023-02-11T16:25:39.393Z,3.5
2023-02-11T16:33:11.703Z,3.3
2023-02-11T16:40:44.058Z,5.1
2023-02-11T16:48:16.373Z,3.9
2023-02-11T16:55:48.677Z,5.0
2023-02-11T17:03:20.966Z,5.1
2023-02-11T17:10:53.647Z,4.4
2023-02-11T17:18:26.195Z,4.3
2023-02-11T17:25:58.535Z,4.4
2023-02-11T17:33:30.874Z,4.6
2023-02-11T17:41:03.197Z,4.1
2023-02-11T17:48:35.512Z,5.9
2023-02-11T17:56:07.821Z,4.9
2023-02-11T18:03:40.147Z,5.0
2023-02-11T18:11:12.448Z,5.0
2023-02-11T18:18:44.791Z,4.9
2023-02-11T18:26:17.135Z,6.0
2023-02-11T18:33:49.457Z,5.9
2023-02-11T18:41:21.810Z,5.1
2023-02-11T18:48:56.105Z,4.3
2023-02-11T18:56:28.645Z,4.5
2023-02-11T19:04:00.998Z,5.7
2023-02-11T19:11:33.361Z,5.7
2023-02-11T19:19:05.644Z,5.0
2023-02-11T19:26:37.956Z,5.7
2023-02-11T19:34:10.288Z,5.9
2023-02-11T19:41:42.623Z,5.3
2023-02-11T19:49:14.936Z,6.5
2023-02-11T19:56:47.307Z,6.1
2023-02-11T20:04:19.666Z,6.6
2023-02-11T20:11:52.004Z,6.6
2023-02-11T20:19:24.339Z,5.2
2023-02-11T20:26:56.830Z,6.6
2023-02-11T20:34:29.157Z,5.8
2023-02-11T20:42:01.480Z,6.1
2023-02-11T20:49:33.844Z,6.7
2023-02-11T20:57:06.144Z,5.7
2023-02-11T21:04:38.452Z,6.1
2023-02-11T21:12:10.773Z,6.9
2023-02-11T21:19:43.108Z,6.2
2023-02-11T21:27:15.428Z,5.9
2023-02-11T21:34:47.733Z,6.5
2023-02-11T21:42:20.033Z,6.6
2023-02-11T21:49:52.333Z,7.8
2023-02-11T21:57:24.668Z,5.9
2023-02-11T22:04:57.004Z,5.9
2023-02-11T22:12:29.333Z,6.1
2023-02-11T22:20:01.663Z,6.8
2023-02-11T22:27:34.006Z,6.3
2023-02-11T22:35:06.351Z,5.9
2023-02-11T22:42:38.747Z,7.8
2023-02-11T22:50:11.068Z,5.9
2023-02-11T22:57:43.404Z,6.6
2023-02-11T23:05:15.729Z,6.4
2023-02-11T23:12:48.057Z,5.7
2023-02-11T23:20:20.369Z,5.7
2023-02-11T23:27:52.676Z,5.6
2023-02-11T23:35:25.039Z,6.1
2023-02-11T23:42:57.554Z,6.5
2023-02-11T23:50:29.901Z,5.9
2023-02-11T23:58:02.206Z,5.7
